Create Custom Reports and Graphics: Custom Report

Bell Hill-West

Current Conditions

4/19/21 5:30 PM (-07:00)
Updated Every 15 Minutes
Temp 73.2 °F   6.4
RH 24 %   8
Dew Pt 34.8 °F   4.2
Wet Bulb 52.4 °F   0.6
Wind Dir WSW | 256 °
Wind Spd 10.7 mph   2.1
Wind Gust 15.5 mph   0.3
Solar Rad 470 W/m2   1
BatVolt 13.1 V   0.0

Today & Yesterday

Bell Hill-West

4/19/21 5:30 PM (-07:00)
Updated Every 15 Minutes
Daily Max Temp 79.4 °F   4.2
Time of Max Temp 1417
Daily Min Temp 41.1 °F   4.3
Time of Min Temp 0621
Daily Max Wind 19.5 mph   3.4
Time of Max Wind 1628
Max Wind Dir SW | 234 °
Daily Rain 0.00 In
Daily ETo 0.209 in   0.004
Yesterday's Max Temp 83.6 °F
Yesterday’s Min Temp 36.8 °F
Yesterday's Max Wind 22.9 mph
Yesterday's Rainfall 0.00 In
Yesterday's ETo 0.23 In

Last 48 Hours

Bell Hill-West

Hourly Data | America/Los_Angeles
as of 4/19/21 5:38 PM PDT
Date & Time Temp (°F) WindChill (°F) RH (%) Dew Pt (°F) Wet Bulb (°F) Wind Dir (°) Wind Spd (mph) Wind Gust (mph) Wind Gst Dir (°) Solar Rad (W/m2) Latest Rain (In) Daily Rain (In) Daily Min Temp (°F) Daily Max Temp (°F) Daily ETo (in)
4/19/21 - 1700 75.5 - 26 38.6 54.4 WSW | 239 11.2 19.5 SW | 234 655 0.00 0.00 41.1 79.4 0.209
4/19/21 - 1600 78.1 - 23 37.8 54.9 WSW | 240 9.9 16.5 SSW | 211 812 0.00 0.00 41.1 79.4 0.187
4/19/21 - 1500 78.8 - 20 34.4 53.9 SW | 235 9.2 16.2 SW | 222 954 0.00 0.00 41.1 79.4 0.160
4/19/21 - 1400 78.2 - 20 33.6 53.5 SW | 232 8.9 16.2 SSW | 195 1,008 0.00 0.00 41.1 79.4 0.130
4/19/21 - 1300 76.4 - 23 36.1 53.8 SW | 234 8.0 15.5 SW | 219 993 0.00 0.00 41.1 77.8 0.099
4/19/21 - 1200 73.6 - 27 37.7 53.5 NW | 304 3.9 12.5 SW | 224 915 0.00 0.00 41.1 76.1 0.069
4/19/21 - 1100 70.6 - 30 37.7 52.6 N | 352 4.3 8.1 NNW | 342 780 0.00 0.00 41.1 72.1 0.044
4/19/21 - 1000 66.7 - 33 36.4 50.8 N | 10 1.0 4.8 NNE | 15 600 0.00 0.00 41.1 69.3 0.023
4/19/21 - 0900 59.1 - 44 36.9 48.0 S | 183 0.7 3.1 SSW | 199 385 0.00 0.00 41.1 63.8 0.010
4/19/21 - 0800 46.8 - 65 35.7 41.9 S | 187 2.3 3.8 SSW | 192 166 0.00 0.00 41.1 52.8 0.002
4/19/21 - 0700 42.1 - 74 34.4 38.9 S | 184 2.7 4.8 SSW | 202 10 0.00 0.00 41.1 50.4 0.000
4/19/21 - 0600 43.4 42.1 70 34.1 39.5 S | 186 3.1 4.4 S | 185 0 0.00 0.00 42.6 50.4 0.000
4/19/21 - 0500 45.2 44.1 65 34.3 40.5 S | 180 3.1 4.8 S | 180 0 0.00 0.00 44.3 50.4 0.000
4/19/21 - 0400 45.7 - 65 34.7 41.0 S | 183 2.7 4.4 S | 186 0 0.00 0.00 44.7 50.4 0.000
4/19/21 - 0300 47.3 46.3 61 34.7 41.8 S | 183 3.4 4.8 S | 178 0 0.00 0.00 46.3 50.4 0.000
4/19/21 - 0200 49.0 48.5 58 34.9 42.7 S | 183 3.0 4.4 S | 176 0 0.00 0.00 47.8 50.4 0.000
4/19/21 - 0100 49.2 - 60 35.8 43.2 SSW | 194 2.9 4.8 S | 179 0 0.00 0.00 36.8 83.6 0.234
4/19/21 - 0000 52.5 - 53 35.8 44.8 S | 188 2.7 5.1 SSW | 212 0 0.00 0.00 36.8 83.6 0.234
4/18/21 - 2300 54.1 - 50 36.0 45.5 S | 183 2.2 4.4 S | 186 0 0.00 0.00 36.8 83.6 0.234
4/18/21 - 2200 58.4 - 41 34.4 46.8 S | 186 1.2 4.8 SW | 235 0 0.00 0.00 36.8 83.6 0.234
4/18/21 - 2100 66.2 - 26 30.6 48.6 SW | 224 2.0 6.8 WSW | 239 0 0.00 0.00 36.8 83.6 0.234
4/18/21 - 2000 71.9 - 20 29.1 50.2 WSW | 249 3.6 9.8 WSW | 256 37 0.00 0.00 36.8 83.6 0.234
4/18/21 - 1900 76.8 - 16 27.4 51.3 W | 266 6.0 14.8 W | 272 231 0.00 0.00 36.8 83.6 0.233
4/18/21 - 1800 79.1 - 17 30.6 52.8 WSW | 252 9.1 20.2 WSW | 239 441 0.00 0.00 36.8 83.6 0.223
4/18/21 - 1700 81.7 - 15 29.5 53.3 WSW | 250 9.9 22.9 SW | 225 648 0.00 0.00 36.8 83.6 0.205
4/18/21 - 1600 82.7 - 13 26.3 52.8 W | 268 5.0 14.8 W | 266 820 0.00 0.00 36.8 83.6 0.181
4/18/21 - 1500 82.0 - 12 23.6 51.9 NNW | 337 4.5 11.8 NNW | 334 941 0.00 0.00 36.8 83.6 0.155
4/18/21 - 1400 80.4 - 12 22.7 51.3 NNE | 20 5.6 14.2 ENE | 60 992 0.00 0.00 36.8 81.6 0.127
4/18/21 - 1300 79.2 - 12 22.9 51.0 N | 352 3.6 9.8 NE | 35 998 0.00 0.00 36.8 81.2 0.097
4/18/21 - 1200 76.0 - 16 26.7 50.9 N | 360 3.4 10.5 NE | 42 920 0.00 0.00 36.8 77.8 0.068
4/18/21 - 1100 71.3 - 24 32.4 51.0 NNE | 33 2.3 6.8 NE | 44 785 0.00 0.00 36.8 73.9 0.043
4/18/21 - 1000 66.0 - 29 33.1 49.3 NNE | 19 0.7 4.8 N | 7 598 0.00 0.00 36.8 69.0 0.022
4/18/21 - 0900 55.9 - 45 34.6 45.8 SSW | 201 0.9 3.8 S | 190 384 0.00 0.00 36.8 62.3 0.009
4/18/21 - 0800 43.1 - 70 33.8 39.1 S | 188 2.9 4.8 S | 181 169 0.00 0.00 36.8 49.7 0.002
4/18/21 - 0700 37.2 - 82 32.4 35.3 S | 186 2.7 4.4 S | 190 10 0.00 0.00 36.8 43.8 0.000
4/18/21 - 0600 38.4 36.2 79 32.3 35.9 S | 187 3.3 5.1 SSW | 195 0 0.00 0.00 37.6 43.8 0.000
4/18/21 - 0500 39.2 - 77 32.8 36.6 S | 186 2.9 4.8 S | 182 0 0.00 0.00 38.4 43.8 0.000
4/18/21 - 0400 40.5 38.7 75 33.1 37.5 S | 188 3.2 5.1 S | 187 0 0.00 0.00 39.4 43.8 0.000
4/18/21 - 0300 42.0 40.6 71 33.3 38.4 S | 186 3.1 4.8 S | 187 0 0.00 0.00 41.4 43.8 0.000
4/18/21 - 0200 43.0 - 69 33.7 39.1 SSW | 193 2.7 4.4 SSW | 207 0 0.00 0.00 41.8 43.8 0.000
4/18/21 - 0100 45.1 43.7 64 33.7 40.2 S | 190 3.4 5.1 SSW | 193 0 0.00 0.00 38.6 78.6 0.229
4/18/21 - 0000 47.7 46.9 59 34.0 41.7 S | 186 3.1 5.4 S | 188 0 0.00 0.00 38.6 78.6 0.228
4/17/21 - 2300 50.5 - 53 34.2 43.2 S | 190 2.8 4.8 S | 187 0 0.00 0.00 38.6 78.6 0.228
4/17/21 - 2200 54.0 - 48 34.8 45.0 S | 191 2.8 4.4 S | 181 0 0.00 0.00 38.6 78.6 0.228
4/17/21 - 2100 62.9 - 32 32.6 48.0 SSW | 204 1.3 7.1 W | 266 0 0.00 0.00 38.6 78.6 0.228
4/17/21 - 2000 72.3 - 19 25.8 49.6 WNW | 301 3.4 8.8 WNW | 282 42 0.00 0.00 38.6 78.6 0.228
4/17/21 - 1900 77.0 - 11 18.9 49.5 NE | 44 4.7 11.8 NE | 34 234 0.00 0.00 38.6 78.6 0.227
4/17/21 - 1800 77.7 - 11 18.4 49.6 NE | 42 5.5 13.2 NNE | 30 452 0.00 0.00 38.6 78.6 0.218
4/17/21 - 1700 77.8 - 11 18.5 49.7 NE | 50 5.5 12.5 NE | 43 660 0.00 0.00 38.6 78.6 0.203
Max 82.7 48.5 82 38.6 54.9 - 11.2 22.9 - 1,008 0.00 0.00 47.8 83.6 0.234
Avg 61.4 43.0 41 32.0 46.5 - 4.0 8.6 - 340 0.00 - - - -
Min 37.2 36.2 11 18.4 35.3 - 0.7 3.1 - 0 0.00 0.00 36.8 43.8 0.000
Total - - - - - - - - - - 0.00 - - - -

Last 30 Days

Bell Hill-West

Daily Data | America/Los_Angeles
as of 4/19/21 5:38 PM PDT
Date Daily Max Temp (°F) Time of Max Temp Daily Min Temp (°F) Time of Min Temp Daily Rain (In) Monthly Rain (In) Seasonal Rainfall (In) Wind Spd (mph) Daily Max Wind (mph) Time of Max Wind Max Wind Dir (°) Daily ETo (in) 7 Day ETo (in) Daily Solar Rad (Cal/cm2) Dew Pt (°F) Max RH (%) Min RH (%) Hrs 70-85F (hrs) Hrs > 95F (hrs) Powdery Mildew Stress (pts) GDDs (DL) GDDs (Mx/Mn) Seas GDDs (DL) Seas GDDs (Smpl) Hrs <= 32F (hrs) Hrs <= 28F (hrs) Chilling <=45F (hrs) Chill Hrs 32-45F (hrs) Utah Chilling (Units) Chilling <=45F Seas (hrs) Chill Hrs 32-45 Seas (hrs) Utah Chilling Seas (Units) Degree Hrs (hrs) Bat Volt Min Day (V)
4/18/21 83.6 1428 36.8 0612 0.00 0.00 10.60 3.6 22.9 1643 SW | 225 0.234 1.47 686 31.0 84 9 9.48 0.00 70 13.9 10.2 145 81 0.0 0.0 6.7 6.7 1.0 - - - 133.4 12.3
4/17/21 78.6 1625 38.6 0651 0.00 0.00 10.60 3.8 19.2 1022 NNE | 22 0.229 1.43 687 29.6 88 9 9.60 0.00 50 12.1 8.6 131 71 0.0 0.0 7.0 7.0 -8.5 - - - 102.6 12.3
4/16/21 77.0 1557 35.4 0644 0.00 0.00 10.60 3.3 17.5 1725 WSW | 237 0.208 1.39 665 33.6 92 15 6.56 0.00 30 10.2 6.2 119 62 0.0 0.0 6.9 6.9 1.5 - - - 63.9 12.3
4/15/21 68.5 1307 33.6 0633 0.00 0.00 10.60 4.5 16.8 1627 SSW | 201 0.198 1.36 666 32.4 92 18 0.00 0.00 10 6.7 1.1 109 56 0.0 0.0 9.5 9.5 3.5 - - - 13.8 12.2
4/14/21 68.2 1543 36.0 0525 0.00 0.00 10.60 3.4 19.2 1729 WSW | 239 0.184 1.36 647 29.3 81 17 0.00 0.00 20 6.3 2.1 102 55 0.0 0.0 9.2 9.2 -3.0 - - - 4.1 12.2
4/13/21 71.7 1528 37.6 0648 0.00 0.00 10.60 3.7 19.8 1729 WSW | 245 0.204 1.36 664 29.2 82 15 2.56 0.00 30 7.7 4.6 96 53 0.0 0.0 8.5 8.5 3.5 - - - 24.3 12.2
4/12/21 78.0 1420 38.9 0655 0.00 0.00 10.60 3.8 16.2 1553 SSW | 206 0.211 1.34 640 35.3 92 15 7.93 0.00 40 11.1 8.5 88 48 0.0 0.0 6.9 6.9 2.5 - - - 83.5 12.2
4/11/21 78.1 1648 35.2 0653 0.00 0.00 10.60 3.0 12.5 1434 W | 273 0.195 1.28 643 37.3 98 15 6.78 0.00 20 10.3 6.7 77 40 0.0 0.0 7.0 7.0 2.0 - - - 75.3 12.2
4/10/21 74.3 1648 33.5 0635 0.00 0.00 10.60 3.3 16.8 1815 WSW | 257 0.191 1.23 647 36.9 100 15 4.18 0.00 0 7.7 3.9 67 33 0.0 0.0 9.0 9.0 3.5 - - - 37.2 12.3
4/9/21 70.8 1512 34.9 0647 0.00 0.00 10.60 3.8 17.8 1749 WSW | 243 0.181 1.19 636 38.0 92 25 0.75 0.00 0 6.0 2.9 59 29 0.0 0.0 9.8 9.8 4.5 - - - 18.0 12.2
4/8/21 71.4 1416 31.8 0649 0.00 0.00 10.60 3.7 17.5 1330 WSW | 237 0.189 1.20 633 33.7 100 12 2.57 0.00 0 7.0 1.6 53 26 0.4 0.0 9.1 8.8 3.5 - - - 25.5 12.2
4/7/21 67.6 1555 33.5 0621 0.00 0.00 10.60 4.2 22.2 1534 SSW | 200 0.185 1.20 629 33.8 96 12 0.00 0.00 0 5.3 0.6 46 25 0.0 0.0 9.9 9.9 5.0 - - - 6.0 12.3
4/6/21 73.1 1537 37.5 0650 0.00 0.00 10.60 3.7 15.5 1539 SSW | 193 0.183 1.21 615 41.8 100 21 3.88 0.00 10 7.9 5.3 41 24 0.0 0.0 8.5 8.5 3.0 - - - 33.6 12.2
4/5/21 69.8 1645 37.9 0237 0.00 0.00 10.60 3.0 13.5 1755 SW | 220 0.157 1.22 585 41.9 96 34 0.00 0.00 20 5.9 3.8 33 19 0.0 0.0 9.0 9.0 3.0 - - - 9.6 12.2
4/4/21 67.6 1551 40.3 0059 0.00 0.00 10.60 3.3 16.5 1556 WSW | 249 0.142 1.22 538 41.3 90 38 0.00 0.00 30 4.3 4.0 27 15 0.0 0.0 2.5 2.5 4.0 - - - 3.8 12.2
4/3/21 65.8 1503 31.5 0643 0.00 0.00 10.60 4.5 14.8 1124 WSW | 250 0.150 1.26 565 36.0 90 28 0.00 0.00 40 4.2 0.0 23 11 0.2 0.0 9.0 8.8 4.0 - - - 0.0 12.2
4/2/21 74.3 1641 32.8 0657 0.00 0.00 10.60 4.1 14.5 1428 WSW | 241 0.193 1.29 595 27.9 85 9 5.78 0.00 50 8.7 3.5 19 11 0.0 0.0 9.3 9.3 3.5 - - - 50.2 12.2
4/1/21 79.1 1513 36.1 0709 0.00 0.00 10.60 3.7 16.8 1433 SW | 229 0.193 1.25 596 31.5 89 10 6.92 0.00 60 10.1 7.6 10 8 0.0 0.0 8.9 8.9 3.5 - - - 78.2 12.2
3/31/21 77.4 1702 39.2 0734 0.00 1.87 10.60 3.5 16.2 1153 NE | 56 0.196 1.19 602 27.8 78 12 8.03 0.00 0 11.0 8.2 - - 0.0 0.0 6.2 6.2 2.5 1,918 1,464 906 81.6 12.2
3/30/21 74.9 1623 29.6 0658 0.00 1.87 10.60 3.7 16.2 1238 ESE | 121 0.187 1.15 603 22.3 87 7 6.13 0.00 0 8.6 2.2 - - 3.0 0.0 8.7 5.7 3.5 1,912 1,458 905 54.7 12.2
3/29/21 69.5 1558 36.7 0709 0.00 1.87 10.60 3.0 13.5 1230 E | 87 0.162 1.11 584 31.7 86 17 0.00 0.00 0 6.4 3.1 - - 0.0 0.0 10.4 10.4 -3.0 1,903 1,452 902 13.9 12.2
3/28/21 76.0 1602 35.3 0712 0.00 1.87 10.60 3.8 15.8 1756 WSW | 244 0.182 1.06 580 33.6 86 14 5.27 0.00 0 8.8 5.7 - - 0.0 0.0 8.7 8.7 2.5 1,893 1,442 906 53.0 12.2
3/27/21 77.4 1646 34.5 0636 0.00 1.87 10.60 3.0 13.8 1731 SW | 217 0.174 1.02 576 34.3 94 17 6.39 0.00 0 9.0 5.9 - - 0.0 0.0 8.7 8.7 3.0 1,884 1,433 905 61.4 12.2
3/26/21 69.9 1721 29.9 0716 0.00 1.87 10.60 2.9 14.2 1224 N | 4 0.155 0.97 578 29.0 100 14 0.00 0.00 0 5.8 0.0 - - 2.6 0.0 11.1 8.4 4.5 1,875 1,425 903 12.6 12.2
3/25/21 60.9 1720 34.3 0728 0.00 1.87 10.60 3.6 15.5 1733 WSW | 238 0.135 0.90 549 35.8 100 33 0.00 0.00 0 2.5 0.0 - - 0.0 0.0 11.5 11.5 5.0 1,864 1,416 899 0.0 12.2
3/24/21 69.0 1448 31.4 0717 0.00 1.87 10.60 4.4 18.5 1750 WSW | 256 0.151 0.81 493 29.6 83 14 0.00 0.00 0 5.0 0.2 - - 0.7 0.0 8.4 7.7 3.0 1,853 1,405 895 5.0 12.2
3/23/21 61.2 1628 29.6 0701 0.00 1.87 10.60 4.0 20.9 1318 NNE | 31 0.151 0.75 560 26.0 100 16 0.00 0.00 0 3.2 0.0 - - 2.7 0.0 12.5 9.8 5.0 1,844 1,397 893 0.0 12.1
3/22/21 60.2 1606 36.1 0222 0.00 1.87 10.60 4.4 18.8 1548 WSW | 248 0.117 0.72 446 36.9 96 41 0.00 0.00 0 2.4 0.0 - - 0.0 0.0 10.2 10.2 5.5 1,832 1,387 889 0.0 12.2
3/21/21 62.3 1642 28.9 0644 0.00 1.87 10.60 3.3 16.2 1432 SW | 224 0.137 0.66 539 33.7 100 20 0.00 0.00 0 3.0 0.0 - - 4.8 0.0 11.0 6.2 5.0 1,822 1,377 884 0.0 12.2
3/20/21 56.8 1707 32.0 0703 0.00 1.87 10.60 3.5 15.5 1810 W | 260 0.119 0.56 508 34.1 100 33 0.00 0.00 0 1.1 0.0 - - 0.0 0.0 12.2 12.2 5.5 1,811 1,371 880 0.0 12.2
Max 83.6 - 40.3 - 0.00 1.87 - 4.5 22.9 - - 0.234 - 687 41.9 100 41 9.60 0.00 - 13.9 10.2 - - 4.8 0.0 12.5 12.2 5.5 - - - 133.4 12.3
Avg - - - - - 0.75 - 3.7 - - - - - - 33.2 - - 3.09 0.00 - 7.1 3.5 - - 0.5 0.0 8.9 8.4 2.7 - - - - -
Min 56.8 - 28.9 - 0.00 0.00 - 2.9 12.5 - - 0.117 - 446 22.3 78 7 0.00 0.00 - 1.1 0.0 - - 0.0 0.0 2.5 2.5 -8.5 - - - 0.0 12.1
Total - - - - - - - - - - - - - - - - - 92.80 0.00 - 212.3 106.2 - - 14.4 0.0 266.3 251.9 82.0 - - - - -

Bell Hill-West Climate Summary

Current Yeaer

Current Year | Showing 1/1/21 - 4/18/21
as of 4/19/21 5:38 PM PDT
Temperature (°F) Precip (in) Days
Month Days Avg Max Avg Min Max Max Min Min Total Daily Min Temp < 28 Daily Min Temp < 32 Daily Max Temp > 90 Daily Max Temp > 100 Daily Rain > 0.01 Daily Rain > 0.1
Jan 2021 31 56.2 33.9 74.9 20.1 3.55 5 12 0 0 13 5
Feb 2021 28 60.7 32.6 72.9 26.7 1.79 3 15 0 0 10 5
Mar 2021 31 61 32.2 77.4 26.6 1.87 2 17 0 0 6 5
Apr 2021 18 73.2 35.7 83.6 31.5 0 0 2 0 0 0 0
Total 108 - - - - 7.21 10 46 0 0 29 15
Average 27 62.8 33.6 - - 1.8 2.5 11.5 0 0 7.2 3.8
Maximum 31 73.2 35.7 83.6 - 3.55 5 17 0 0 13 5
Minimum 18 56.2 32.2 - 20.1 0 0 2 0 0 0 0

Bell Hill-West Climate Summary

Last Year

Last Year | Showing 1/1/20 - 12/31/20
as of 4/19/21 5:38 PM PDT
Temperature (°F) Precip (in) Days
Month Days Avg Max Avg Min Max Max Min Min Total Daily Min Temp < 28 Daily Min Temp < 32 Daily Max Temp > 90 Daily Max Temp > 100 Daily Rain > 0.01 Daily Rain > 0.1
Jan 2020 31 55 34.1 69.6 25.8 2.38 3 13 0 0 13 6
Feb 2020 29 66.1 30.9 76.7 23.5 0 4 17 0 0 0 0
Mar 2020 31 59.8 34 80.6 26.6 1.44 2 11 0 0 9 4
Apr 2020 30 70.4 41.2 85.7 27.8 0.84 1 4 0 0 4 3
May 2020 31 76.6 45 95.7 32.9 1.22 0 0 5 0 6 4
Jun 2020 30 85.9 51.7 102.7 36.9 0 0 0 12 1 0 0
Jul 2020 31 92.7 54.5 98.2 45.7 0 0 0 25 0 0 0
Aug 2020 31 93.8 57.2 102.3 49.2 0.12 0 0 27 3 2 0
Sep 2020 30 89.3 50.8 107.8 42.2 0 0 0 12 3 0 0
Oct 2020 31 84.9 43.2 96.4 34.6 0 0 0 11 0 0 0
Nov 2020 30 63.9 31.4 84.5 21.4 0.61 11 18 0 0 3 2
Dec 2020 31 58.7 30.3 73.3 23.1 2.66 13 23 0 0 8 6
Total 366 - - - - 9.27 34 86 92 7 45 25
Average 30.5 74.7 42 - - 0.77 2.8 7.2 7.7 0.6 3.8 2.1
Maximum 31 93.8 57.2 107.8 - 2.66 13 23 27 3 13 6
Minimum 29 55 30.3 - 21.4 0 0 0 0 0 0 0
Calm: 0.0%
Calm: 0.0%